sensor_id;sensor_type;location;lat;lon;timestamp;P1;durP1;ratioP1;P2;durP2;ratioP2
73428;SDS011;61643;49.564;17.412;2023-05-07T00:00:19;17.85;;;9.60;;
73428;SDS011;61643;49.564;17.412;2023-05-07T00:02:46;14.80;;;8.65;;
73428;SDS011;61643;49.564;17.412;2023-05-07T00:05:12;14.90;;;9.07;;
73428;SDS011;61643;49.564;17.412;2023-05-07T00:07:38;17.17;;;9.50;;
73428;SDS011;61643;49.564;17.412;2023-05-07T00:10:04;15.95;;;8.82;;
73428;SDS011;61643;49.564;17.412;2023-05-07T00:12:32;15.55;;;8.75;;
73428;SDS011;61643;49.564;17.412;2023-05-07T00:15:00;16.73;;;9.30;;
73428;SDS011;61643;49.564;17.412;2023-05-07T00:17:27;13.68;;;8.68;;
73428;SDS011;61643;49.564;17.412;2023-05-07T00:19:52;16.55;;;8.75;;
73428;SDS011;61643;49.564;17.412;2023-05-07T00:22:18;17.80;;;9.65;;
73428;SDS011;61643;49.564;17.412;2023-05-07T00:24:44;15.48;;;9.05;;
73428;SDS011;61643;49.564;17.412;2023-05-07T00:27:10;14.60;;;8.30;;
73428;SDS011;61643;49.564;17.412;2023-05-07T00:29:36;16.40;;;9.23;;
73428;SDS011;61643;49.564;17.412;2023-05-07T00:32:02;15.60;;;9.18;;
73428;SDS011;61643;49.564;17.412;2023-05-07T00:34:28;19.25;;;10.27;;
73428;SDS011;61643;49.564;17.412;2023-05-07T00:36:54;15.55;;;9.40;;
73428;SDS011;61643;49.564;17.412;2023-05-07T00:39:20;18.90;;;9.63;;
73428;SDS011;61643;49.564;17.412;2023-05-07T00:41:46;17.00;;;9.80;;
73428;SDS011;61643;49.564;17.412;2023-05-07T00:44:13;19.70;;;10.43;;
73428;SDS011;61643;49.564;17.412;2023-05-07T00:46:40;17.52;;;9.70;;
73428;SDS011;61643;49.564;17.412;2023-05-07T00:49:06;19.73;;;9.20;;
73428;SDS011;61643;49.564;17.412;2023-05-07T00:51:32;20.98;;;9.82;;
73428;SDS011;61643;49.564;17.412;2023-05-07T00:53:59;18.58;;;10.45;;
73428;SDS011;61643;49.564;17.412;2023-05-07T00:56:27;20.33;;;10.80;;
73428;SDS011;61643;49.564;17.412;2023-05-07T00:58:54;20.05;;;9.75;;
73428;SDS011;61643;49.564;17.412;2023-05-07T01:01:20;20.13;;;11.05;;
73428;SDS011;61643;49.564;17.412;2023-05-07T01:03:46;20.65;;;10.25;;
73428;SDS011;61643;49.564;17.412;2023-05-07T01:06:12;18.30;;;10.88;;
73428;SDS011;61643;49.564;17.412;2023-05-07T01:08:42;23.50;;;10.95;;
73428;SDS011;61643;49.564;17.412;2023-05-07T01:11:08;21.20;;;10.70;;
73428;SDS011;61643;49.564;17.412;2023-05-07T01:13:36;19.42;;;10.23;;
73428;SDS011;61643;49.564;17.412;2023-05-07T01:16:02;20.50;;;10.50;;
73428;SDS011;61643;49.564;17.412;2023-05-07T01:18:29;19.25;;;11.00;;
73428;SDS011;61643;49.564;17.412;2023-05-07T01:20:55;19.00;;;10.73;;
73428;SDS011;61643;49.564;17.412;2023-05-07T01:23:24;22.35;;;11.55;;
73428;SDS011;61643;49.564;17.412;2023-05-07T01:25:52;21.88;;;11.45;;
73428;SDS011;61643;49.564;17.412;2023-05-07T01:28:18;23.75;;;12.65;;
73428;SDS011;61643;49.564;17.412;2023-05-07T01:30:46;21.63;;;11.68;;
73428;SDS011;61643;49.564;17.412;2023-05-07T01:33:15;23.27;;;12.32;;
73428;SDS011;61643;49.564;17.412;2023-05-07T01:35:45;25.92;;;12.02;;
73428;SDS011;61643;49.564;17.412;2023-05-07T01:38:14;21.17;;;12.40;;
73428;SDS011;61643;49.564;17.412;2023-05-07T01:40:40;23.33;;;12.32;;
73428;SDS011;61643;49.564;17.412;2023-05-07T01:43:07;22.15;;;12.25;;
73428;SDS011;61643;49.564;17.412;2023-05-07T01:45:33;22.77;;;12.32;;
73428;SDS011;61643;49.564;17.412;2023-05-07T01:48:01;25.30;;;12.48;;
73428;SDS011;61643;49.564;17.412;2023-05-07T01:50:28;22.98;;;12.60;;
73428;SDS011;61643;49.564;17.412;2023-05-07T01:52:56;25.65;;;12.85;;
73428;SDS011;61643;49.564;17.412;2023-05-07T01:55:22;28.52;;;12.93;;
73428;SDS011;61643;49.564;17.412;2023-05-07T01:57:48;26.00;;;12.70;;
73428;SDS011;61643;49.564;17.412;2023-05-07T02:00:14;26.80;;;13.13;;
73428;SDS011;61643;49.564;17.412;2023-05-07T02:02:40;24.70;;;12.55;;
73428;SDS011;61643;49.564;17.412;2023-05-07T02:05:06;24.35;;;12.85;;
73428;SDS011;61643;49.564;17.412;2023-05-07T02:07:32;26.70;;;13.25;;
73428;SDS011;61643;49.564;17.412;2023-05-07T02:09:58;23.35;;;12.20;;
73428;SDS011;61643;49.564;17.412;2023-05-07T02:12:24;24.00;;;12.45;;
73428;SDS011;61643;49.564;17.412;2023-05-07T02:14:50;26.58;;;13.38;;
73428;SDS011;61643;49.564;17.412;2023-05-07T02:17:16;27.15;;;12.32;;
73428;SDS011;61643;49.564;17.412;2023-05-07T02:19:42;27.48;;;13.80;;
73428;SDS011;61643;49.564;17.412;2023-05-07T02:22:09;28.80;;;13.65;;
73428;SDS011;61643;49.564;17.412;2023-05-07T02:24:35;25.67;;;12.73;;
73428;SDS011;61643;49.564;17.412;2023-05-07T02:27:01;25.73;;;12.60;;
73428;SDS011;61643;49.564;17.412;2023-05-07T02:29:28;25.75;;;13.15;;
73428;SDS011;61643;49.564;17.412;2023-05-07T02:31:55;27.38;;;13.35;;
73428;SDS011;61643;49.564;17.412;2023-05-07T02:34:21;26.48;;;12.70;;
73428;SDS011;61643;49.564;17.412;2023-05-07T02:36:47;26.13;;;12.60;;
73428;SDS011;61643;49.564;17.412;2023-05-07T02:39:13;26.25;;;12.43;;
73428;SDS011;61643;49.564;17.412;2023-05-07T02:41:39;25.95;;;12.27;;
73428;SDS011;61643;49.564;17.412;2023-05-07T02:44:05;29.92;;;13.27;;
73428;SDS011;61643;49.564;17.412;2023-05-07T02:46:31;23.83;;;12.05;;
73428;SDS011;61643;49.564;17.412;2023-05-07T02:48:57;24.13;;;12.30;;
73428;SDS011;61643;49.564;17.412;2023-05-07T02:51:23;24.98;;;12.75;;
73428;SDS011;61643;49.564;17.412;2023-05-07T02:53:49;25.48;;;12.30;;
73428;SDS011;61643;49.564;17.412;2023-05-07T02:56:15;25.27;;;12.35;;
73428;SDS011;61643;49.564;17.412;2023-05-07T02:58:41;25.30;;;11.60;;
73428;SDS011;61643;49.564;17.412;2023-05-07T03:01:10;23.23;;;11.43;;
73428;SDS011;61643;49.564;17.412;2023-05-07T03:03:36;23.67;;;11.07;;
73428;SDS011;61643;49.564;17.412;2023-05-07T03:06:02;22.98;;;11.88;;
73428;SDS011;61643;49.564;17.412;2023-05-07T03:08:28;20.48;;;10.55;;
73428;SDS011;61643;49.564;17.412;2023-05-07T03:10:54;19.77;;;10.38;;
73428;SDS011;61643;49.564;17.412;2023-05-07T03:13:20;22.35;;;10.68;;
73428;SDS011;61643;49.564;17.412;2023-05-07T03:15:46;17.90;;;9.73;;
73428;SDS011;61643;49.564;17.412;2023-05-07T03:18:12;20.33;;;10.00;;
73428;SDS011;61643;49.564;17.412;2023-05-07T03:20:38;18.38;;;10.07;;
73428;SDS011;61643;49.564;17.412;2023-05-07T03:23:04;18.05;;;10.02;;
73428;SDS011;61643;49.564;17.412;2023-05-07T03:25:31;20.85;;;10.65;;
73428;SDS011;61643;49.564;17.412;2023-05-07T03:27:57;17.40;;;9.70;;
73428;SDS011;61643;49.564;17.412;2023-05-07T03:30:23;18.17;;;9.23;;
73428;SDS011;61643;49.564;17.412;2023-05-07T03:32:49;19.08;;;10.05;;
73428;SDS011;61643;49.564;17.412;2023-05-07T03:35:16;19.70;;;9.82;;
73428;SDS011;61643;49.564;17.412;2023-05-07T03:37:42;17.85;;;10.07;;
73428;SDS011;61643;49.564;17.412;2023-05-07T03:40:08;18.52;;;9.63;;
73428;SDS011;61643;49.564;17.412;2023-05-07T03:42:35;21.77;;;10.18;;
73428;SDS011;61643;49.564;17.412;2023-05-07T03:45:01;19.67;;;10.05;;
73428;SDS011;61643;49.564;17.412;2023-05-07T03:47:27;17.33;;;9.00;;
73428;SDS011;61643;49.564;17.412;2023-05-07T03:49:54;17.00;;;8.98;;
73428;SDS011;61643;49.564;17.412;2023-05-07T03:52:20;17.10;;;8.30;;
73428;SDS011;61643;49.564;17.412;2023-05-07T03:54:52;14.48;;;8.50;;
73428;SDS011;61643;49.564;17.412;2023-05-07T03:57:19;17.35;;;9.10;;
73428;SDS011;61643;49.564;17.412;2023-05-07T03:59:45;15.90;;;8.52;;
73428;SDS011;61643;49.564;17.412;2023-05-07T04:02:11;12.93;;;7.32;;
73428;SDS011;61643;49.564;17.412;2023-05-07T04:04:37;15.00;;;7.90;;
73428;SDS011;61643;49.564;17.412;2023-05-07T04:07:03;14.63;;;8.27;;
73428;SDS011;61643;49.564;17.412;2023-05-07T04:09:29;13.57;;;8.05;;
73428;SDS011;61643;49.564;17.412;2023-05-07T04:11:56;15.18;;;8.50;;
73428;SDS011;61643;49.564;17.412;2023-05-07T04:14:22;17.77;;;8.93;;
73428;SDS011;61643;49.564;17.412;2023-05-07T04:16:48;15.55;;;8.20;;
73428;SDS011;61643;49.564;17.412;2023-05-07T04:19:13;14.00;;;7.78;;
73428;SDS011;61643;49.564;17.412;2023-05-07T04:21:39;15.32;;;7.90;;
73428;SDS011;61643;49.564;17.412;2023-05-07T04:24:06;16.05;;;8.20;;
73428;SDS011;61643;49.564;17.412;2023-05-07T04:26:32;14.88;;;8.18;;
73428;SDS011;61643;49.564;17.412;2023-05-07T04:28:58;13.07;;;7.45;;
73428;SDS011;61643;49.564;17.412;2023-05-07T04:31:24;12.35;;;7.28;;
73428;SDS011;61643;49.564;17.412;2023-05-07T04:33:50;15.57;;;7.63;;
73428;SDS011;61643;49.564;17.412;2023-05-07T04:36:17;13.23;;;7.57;;
73428;SDS011;61643;49.564;17.412;2023-05-07T04:38:43;14.85;;;7.50;;
73428;SDS011;61643;49.564;17.412;2023-05-07T04:41:09;12.50;;;7.10;;
73428;SDS011;61643;49.564;17.412;2023-05-07T04:43:38;11.10;;;7.00;;
73428;SDS011;61643;49.564;17.412;2023-05-07T04:46:04;14.52;;;7.38;;
73428;SDS011;61643;49.564;17.412;2023-05-07T04:48:30;12.70;;;6.78;;
73428;SDS011;61643;49.564;17.412;2023-05-07T04:50:56;11.88;;;6.40;;
73428;SDS011;61643;49.564;17.412;2023-05-07T04:53:22;13.98;;;6.88;;
73428;SDS011;61643;49.564;17.412;2023-05-07T04:55:48;11.93;;;6.70;;
73428;SDS011;61643;49.564;17.412;2023-05-07T04:58:14;11.15;;;6.03;;
73428;SDS011;61643;49.564;17.412;2023-05-07T05:00:40;11.23;;;6.55;;
73428;SDS011;61643;49.564;17.412;2023-05-07T05:03:07;12.13;;;7.22;;
73428;SDS011;61643;49.564;17.412;2023-05-07T05:05:33;11.45;;;6.03;;
73428;SDS011;61643;49.564;17.412;2023-05-07T05:07:59;11.90;;;5.88;;
73428;SDS011;61643;49.564;17.412;2023-05-07T05:10:25;11.75;;;6.28;;
73428;SDS011;61643;49.564;17.412;2023-05-07T05:12:51;10.05;;;5.93;;
73428;SDS011;61643;49.564;17.412;2023-05-07T05:15:17;8.90;;;5.13;;
73428;SDS011;61643;49.564;17.412;2023-05-07T05:17:43;8.40;;;5.05;;
73428;SDS011;61643;49.564;17.412;2023-05-07T05:20:09;9.48;;;5.05;;
73428;SDS011;61643;49.564;17.412;2023-05-07T05:22:38;7.88;;;5.07;;
73428;SDS011;61643;49.564;17.412;2023-05-07T05:25:04;8.38;;;4.70;;
73428;SDS011;61643;49.564;17.412;2023-05-07T05:27:30;8.40;;;4.68;;
73428;SDS011;61643;49.564;17.412;2023-05-07T05:29:56;7.97;;;4.75;;
73428;SDS011;61643;49.564;17.412;2023-05-07T05:32:22;7.72;;;4.57;;
73428;SDS011;61643;49.564;17.412;2023-05-07T05:34:48;9.43;;;4.88;;
73428;SDS011;61643;49.564;17.412;2023-05-07T05:37:14;8.85;;;4.85;;
73428;SDS011;61643;49.564;17.412;2023-05-07T05:39:40;7.68;;;4.57;;
73428;SDS011;61643;49.564;17.412;2023-05-07T05:42:07;8.48;;;4.40;;
73428;SDS011;61643;49.564;17.412;2023-05-07T05:44:32;5.85;;;3.92;;
73428;SDS011;61643;49.564;17.412;2023-05-07T05:46:58;6.47;;;4.22;;
73428;SDS011;61643;49.564;17.412;2023-05-07T05:49:25;6.10;;;3.83;;
73428;SDS011;61643;49.564;17.412;2023-05-07T05:51:51;5.57;;;3.72;;
73428;SDS011;61643;49.564;17.412;2023-05-07T05:54:17;4.93;;;3.50;;
73428;SDS011;61643;49.564;17.412;2023-05-07T05:56:43;5.72;;;3.60;;
73428;SDS011;61643;49.564;17.412;2023-05-07T05:59:09;4.80;;;3.10;;
73428;SDS011;61643;49.564;17.412;2023-05-07T06:01:35;4.25;;;3.13;;
73428;SDS011;61643;49.564;17.412;2023-05-07T06:04:01;4.50;;;3.38;;
73428;SDS011;61643;49.564;17.412;2023-05-07T06:06:27;4.50;;;2.90;;
73428;SDS011;61643;49.564;17.412;2023-05-07T06:08:54;4.95;;;3.33;;
73428;SDS011;61643;49.564;17.412;2023-05-07T06:11:20;4.20;;;3.00;;
73428;SDS011;61643;49.564;17.412;2023-05-07T06:13:46;5.03;;;3.00;;
73428;SDS011;61643;49.564;17.412;2023-05-07T06:16:12;5.07;;;2.97;;
73428;SDS011;61643;49.564;17.412;2023-05-07T06:18:38;4.40;;;2.95;;
73428;SDS011;61643;49.564;17.412;2023-05-07T06:21:04;3.63;;;2.50;;
73428;SDS011;61643;49.564;17.412;2023-05-07T06:23:30;4.32;;;2.70;;
73428;SDS011;61643;49.564;17.412;2023-05-07T06:25:56;4.20;;;2.97;;
73428;SDS011;61643;49.564;17.412;2023-05-07T06:28:22;4.15;;;3.00;;
73428;SDS011;61643;49.564;17.412;2023-05-07T06:30:48;3.75;;;2.85;;
73428;SDS011;61643;49.564;17.412;2023-05-07T06:33:15;4.43;;;2.90;;
73428;SDS011;61643;49.564;17.412;2023-05-07T06:35:41;4.22;;;2.80;;
73428;SDS011;61643;49.564;17.412;2023-05-07T06:38:08;5.28;;;2.50;;
73428;SDS011;61643;49.564;17.412;2023-05-07T06:40:34;4.80;;;2.97;;
73428;SDS011;61643;49.564;17.412;2023-05-07T06:43:00;4.60;;;2.78;;
73428;SDS011;61643;49.564;17.412;2023-05-07T06:45:26;3.97;;;2.63;;
73428;SDS011;61643;49.564;17.412;2023-05-07T06:47:52;3.95;;;2.85;;
73428;SDS011;61643;49.564;17.412;2023-05-07T06:50:18;4.13;;;2.72;;
73428;SDS011;61643;49.564;17.412;2023-05-07T06:52:44;3.72;;;2.30;;
73428;SDS011;61643;49.564;17.412;2023-05-07T06:55:10;3.45;;;2.50;;
73428;SDS011;61643;49.564;17.412;2023-05-07T06:57:37;5.90;;;2.72;;
73428;SDS011;61643;49.564;17.412;2023-05-07T07:00:03;4.63;;;2.83;;
73428;SDS011;61643;49.564;17.412;2023-05-07T07:02:32;6.65;;;3.20;;
73428;SDS011;61643;49.564;17.412;2023-05-07T07:04:58;4.53;;;3.05;;
73428;SDS011;61643;49.564;17.412;2023-05-07T07:07:25;3.63;;;2.50;;
73428;SDS011;61643;49.564;17.412;2023-05-07T07:09:51;4.05;;;2.88;;
73428;SDS011;61643;49.564;17.412;2023-05-07T07:12:17;4.18;;;2.60;;
73428;SDS011;61643;49.564;17.412;2023-05-07T07:14:43;4.10;;;2.80;;
73428;SDS011;61643;49.564;17.412;2023-05-07T07:17:09;4.50;;;3.03;;
73428;SDS011;61643;49.564;17.412;2023-05-07T07:19:35;6.03;;;3.20;;
73428;SDS011;61643;49.564;17.412;2023-05-07T07:22:01;3.50;;;2.60;;
73428;SDS011;61643;49.564;17.412;2023-05-07T07:24:27;3.95;;;2.90;;
73428;SDS011;61643;49.564;17.412;2023-05-07T07:26:53;4.63;;;2.47;;
73428;SDS011;61643;49.564;17.412;2023-05-07T07:29:20;4.13;;;2.83;;
73428;SDS011;61643;49.564;17.412;2023-05-07T07:31:55;7.00;;;2.70;;
73428;SDS011;61643;49.564;17.412;2023-05-07T07:34:21;4.03;;;3.03;;
73428;SDS011;61643;49.564;17.412;2023-05-07T07:36:47;4.95;;;2.60;;
73428;SDS011;61643;49.564;17.412;2023-05-07T07:39:13;3.72;;;2.53;;
73428;SDS011;61643;49.564;17.412;2023-05-07T07:41:39;3.75;;;2.70;;
73428;SDS011;61643;49.564;17.412;2023-05-07T07:44:05;3.80;;;2.40;;
73428;SDS011;61643;49.564;17.412;2023-05-07T07:46:33;3.10;;;2.25;;
73428;SDS011;61643;49.564;17.412;2023-05-07T07:48:59;3.03;;;2.30;;
73428;SDS011;61643;49.564;17.412;2023-05-07T07:51:25;2.25;;;1.77;;
73428;SDS011;61643;49.564;17.412;2023-05-07T07:53:52;3.38;;;2.47;;
73428;SDS011;61643;49.564;17.412;2023-05-07T07:56:18;2.80;;;2.28;;
73428;SDS011;61643;49.564;17.412;2023-05-07T07:58:43;3.55;;;2.85;;
73428;SDS011;61643;49.564;17.412;2023-05-07T08:01:09;3.17;;;2.38;;
73428;SDS011;61643;49.564;17.412;2023-05-07T08:03:37;3.10;;;2.40;;
73428;SDS011;61643;49.564;17.412;2023-05-07T08:06:03;2.80;;;2.42;;
73428;SDS011;61643;49.564;17.412;2023-05-07T08:08:29;4.53;;;2.55;;
73428;SDS011;61643;49.564;17.412;2023-05-07T08:10:55;3.95;;;2.40;;
73428;SDS011;61643;49.564;17.412;2023-05-07T08:13:21;3.17;;;2.50;;
73428;SDS011;61643;49.564;17.412;2023-05-07T08:15:47;2.90;;;2.28;;
73428;SDS011;61643;49.564;17.412;2023-05-07T08:18:13;2.97;;;2.38;;
73428;SDS011;61643;49.564;17.412;2023-05-07T08:20:39;2.35;;;2.00;;
73428;SDS011;61643;49.564;17.412;2023-05-07T08:23:05;2.60;;;1.83;;
73428;SDS011;61643;49.564;17.412;2023-05-07T08:25:34;4.78;;;2.35;;
73428;SDS011;61643;49.564;17.412;2023-05-07T08:28:00;2.47;;;1.85;;
73428;SDS011;61643;49.564;17.412;2023-05-07T08:30:26;2.42;;;1.90;;
73428;SDS011;61643;49.564;17.412;2023-05-07T08:32:52;2.17;;;1.65;;
73428;SDS011;61643;49.564;17.412;2023-05-07T08:35:18;2.53;;;1.98;;
73428;SDS011;61643;49.564;17.412;2023-05-07T08:37:44;2.83;;;1.60;;
73428;SDS011;61643;49.564;17.412;2023-05-07T08:40:10;1.92;;;1.73;;
73428;SDS011;61643;49.564;17.412;2023-05-07T08:42:36;2.15;;;1.70;;
73428;SDS011;61643;49.564;17.412;2023-05-07T08:45:03;2.03;;;1.42;;
73428;SDS011;61643;49.564;17.412;2023-05-07T08:47:43;2.17;;;1.40;;
73428;SDS011;61643;49.564;17.412;2023-05-07T08:50:12;2.15;;;1.83;;
73428;SDS011;61643;49.564;17.412;2023-05-07T08:52:39;2.80;;;1.77;;
73428;SDS011;61643;49.564;17.412;2023-05-07T08:55:06;1.75;;;1.55;;
73428;SDS011;61643;49.564;17.412;2023-05-07T08:57:33;2.72;;;1.80;;
73428;SDS011;61643;49.564;17.412;2023-05-07T08:59:59;1.60;;;1.27;;
73428;SDS011;61643;49.564;17.412;2023-05-07T09:02:25;1.67;;;1.33;;
73428;SDS011;61643;49.564;17.412;2023-05-07T09:04:51;1.88;;;1.27;;
73428;SDS011;61643;49.564;17.412;2023-05-07T09:07:19;2.90;;;1.67;;
73428;SDS011;61643;49.564;17.412;2023-05-07T09:09:45;1.88;;;1.30;;
73428;SDS011;61643;49.564;17.412;2023-05-07T09:12:11;1.45;;;0.90;;
73428;SDS011;61643;49.564;17.412;2023-05-07T09:14:38;1.75;;;1.20;;
73428;SDS011;61643;49.564;17.412;2023-05-07T09:17:04;3.22;;;1.15;;
73428;SDS011;61643;49.564;17.412;2023-05-07T09:19:30;1.20;;;1.10;;
73428;SDS011;61643;49.564;17.412;2023-05-07T09:22:00;1.42;;;1.05;;
73428;SDS011;61643;49.564;17.412;2023-05-07T09:24:28;1.85;;;0.98;;
73428;SDS011;61643;49.564;17.412;2023-05-07T09:26:59;2.20;;;1.00;;
73428;SDS011;61643;49.564;17.412;2023-05-07T09:29:26;2.53;;;1.13;;
73428;SDS011;61643;49.564;17.412;2023-05-07T09:34:30;2.60;;;1.40;;
73428;SDS011;61643;49.564;17.412;2023-05-07T09:37:06;1.63;;;1.20;;
73428;SDS011;61643;49.564;17.412;2023-05-07T09:39:42;2.42;;;1.55;;
73428;SDS011;61643;49.564;17.412;2023-05-07T09:42:10;2.30;;;1.70;;
73428;SDS011;61643;49.564;17.412;2023-05-07T09:44:37;2.28;;;1.60;;
73428;SDS011;61643;49.564;17.412;2023-05-07T09:47:04;3.25;;;1.50;;
73428;SDS011;61643;49.564;17.412;2023-05-07T09:49:33;2.20;;;1.50;;
73428;SDS011;61643;49.564;17.412;2023-05-07T09:52:01;4.05;;;2.42;;
73428;SDS011;61643;49.564;17.412;2023-05-07T09:54:29;4.63;;;2.22;;
73428;SDS011;61643;49.564;17.412;2023-05-07T09:56:56;4.15;;;2.53;;
73428;SDS011;61643;49.564;17.412;2023-05-07T09:59:22;4.28;;;2.00;;
73428;SDS011;61643;49.564;17.412;2023-05-07T10:01:50;3.50;;;2.63;;
73428;SDS011;61643;49.564;17.412;2023-05-07T10:04:17;5.13;;;3.15;;
73428;SDS011;61643;49.564;17.412;2023-05-07T10:06:45;4.03;;;3.05;;
73428;SDS011;61643;49.564;17.412;2023-05-07T10:09:11;4.88;;;3.08;;
73428;SDS011;61643;49.564;17.412;2023-05-07T10:11:38;4.75;;;3.08;;
73428;SDS011;61643;49.564;17.412;2023-05-07T10:14:05;4.22;;;3.03;;
73428;SDS011;61643;49.564;17.412;2023-05-07T10:16:32;5.85;;;3.17;;
73428;SDS011;61643;49.564;17.412;2023-05-07T10:19:02;5.53;;;3.80;;
73428;SDS011;61643;49.564;17.412;2023-05-07T10:21:30;4.78;;;3.45;;
73428;SDS011;61643;49.564;17.412;2023-05-07T10:26:26;6.75;;;4.05;;
73428;SDS011;61643;49.564;17.412;2023-05-07T10:28:59;6.35;;;3.90;;
73428;SDS011;61643;49.564;17.412;2023-05-07T10:33:55;6.90;;;4.07;;
73428;SDS011;61643;49.564;17.412;2023-05-07T10:36:23;6.30;;;4.65;;
73428;SDS011;61643;49.564;17.412;2023-05-07T10:38:50;6.70;;;4.40;;
73428;SDS011;61643;49.564;17.412;2023-05-07T10:41:17;7.78;;;5.00;;
73428;SDS011;61643;49.564;17.412;2023-05-07T10:43:44;10.65;;;5.45;;
73428;SDS011;61643;49.564;17.412;2023-05-07T10:46:14;10.68;;;5.28;;
73428;SDS011;61643;49.564;17.412;2023-05-07T10:51:26;8.02;;;5.07;;
73428;SDS011;61643;49.564;17.412;2023-05-07T10:56:37;10.52;;;5.15;;
73428;SDS011;61643;49.564;17.412;2023-05-07T11:04:24;6.38;;;4.35;;
73428;SDS011;61643;49.564;17.412;2023-05-07T11:15:07;5.50;;;4.05;;
73428;SDS011;61643;49.564;17.412;2023-05-07T11:17:53;8.93;;;4.05;;
73428;SDS011;61643;49.564;17.412;2023-05-07T11:24:12;7.38;;;4.32;;
73428;SDS011;61643;49.564;17.412;2023-05-07T11:26:07;7.13;;;5.03;;
73428;SDS011;61643;49.564;17.412;2023-05-07T11:28:38;9.43;;;4.90;;
73428;SDS011;61643;49.564;17.412;2023-05-07T11:31:05;8.88;;;5.35;;
73428;SDS011;61643;49.564;17.412;2023-05-07T11:33:31;10.55;;;5.95;;
73428;SDS011;61643;49.564;17.412;2023-05-07T11:35:58;8.18;;;5.50;;
73428;SDS011;61643;49.564;17.412;2023-05-07T11:38:25;9.45;;;6.60;;
73428;SDS011;61643;49.564;17.412;2023-05-07T11:40:52;8.15;;;5.50;;
73428;SDS011;61643;49.564;17.412;2023-05-07T11:43:19;7.45;;;5.15;;
73428;SDS011;61643;49.564;17.412;2023-05-07T11:45:45;7.10;;;4.13;;
73428;SDS011;61643;49.564;17.412;2023-05-07T11:48:12;5.50;;;4.38;;
73428;SDS011;61643;49.564;17.412;2023-05-07T11:53:18;5.85;;;3.28;;
73428;SDS011;61643;49.564;17.412;2023-05-07T11:55:45;6.85;;;4.53;;
73428;SDS011;61643;49.564;17.412;2023-05-07T11:58:12;5.07;;;3.33;;
73428;SDS011;61643;49.564;17.412;2023-05-07T12:00:49;5.10;;;3.35;;
73428;SDS011;61643;49.564;17.412;2023-05-07T12:03:19;5.13;;;3.58;;
73428;SDS011;61643;49.564;17.412;2023-05-07T12:05:48;6.13;;;4.00;;
73428;SDS011;61643;49.564;17.412;2023-05-07T12:08:14;6.18;;;4.03;;
73428;SDS011;61643;49.564;17.412;2023-05-07T12:10:44;4.53;;;3.10;;
73428;SDS011;61643;49.564;17.412;2023-05-07T12:13:18;5.60;;;4.53;;
73428;SDS011;61643;49.564;17.412;2023-05-07T12:15:57;6.45;;;4.25;;
73428;SDS011;61643;49.564;17.412;2023-05-07T12:18:23;5.57;;;3.90;;
73428;SDS011;61643;49.564;17.412;2023-05-07T12:20:50;5.68;;;3.95;;
73428;SDS011;61643;49.564;17.412;2023-05-07T12:23:17;5.55;;;3.95;;
73428;SDS011;61643;49.564;17.412;2023-05-07T12:25:43;6.53;;;3.53;;
73428;SDS011;61643;49.564;17.412;2023-05-07T12:28:13;7.75;;;3.42;;
73428;SDS011;61643;49.564;17.412;2023-05-07T12:30:43;5.43;;;3.50;;
73428;SDS011;61643;49.564;17.412;2023-05-07T12:33:10;5.78;;;3.80;;
73428;SDS011;61643;49.564;17.412;2023-05-07T12:35:37;4.60;;;3.55;;
73428;SDS011;61643;49.564;17.412;2023-05-07T12:38:12;5.53;;;3.83;;
73428;SDS011;61643;49.564;17.412;2023-05-07T12:40:40;7.13;;;4.25;;
73428;SDS011;61643;49.564;17.412;2023-05-07T12:43:14;6.45;;;4.00;;
73428;SDS011;61643;49.564;17.412;2023-05-07T12:45:44;5.70;;;3.95;;
73428;SDS011;61643;49.564;17.412;2023-05-07T12:48:12;5.53;;;3.70;;
73428;SDS011;61643;49.564;17.412;2023-05-07T12:50:38;6.05;;;3.45;;
73428;SDS011;61643;49.564;17.412;2023-05-07T12:53:05;4.53;;;3.38;;
73428;SDS011;61643;49.564;17.412;2023-05-07T12:55:43;4.47;;;3.22;;
73428;SDS011;61643;49.564;17.412;2023-05-07T12:58:15;4.82;;;3.67;;
73428;SDS011;61643;49.564;17.412;2023-05-07T13:00:42;4.47;;;3.63;;
73428;SDS011;61643;49.564;17.412;2023-05-07T13:03:09;3.35;;;2.72;;
73428;SDS011;61643;49.564;17.412;2023-05-07T13:05:35;3.90;;;3.15;;
73428;SDS011;61643;49.564;17.412;2023-05-07T13:08:01;5.43;;;3.08;;
73428;SDS011;61643;49.564;17.412;2023-05-07T13:10:27;3.40;;;2.58;;
73428;SDS011;61643;49.564;17.412;2023-05-07T13:12:54;4.20;;;2.95;;
73428;SDS011;61643;49.564;17.412;2023-05-07T13:15:20;3.58;;;2.78;;
73428;SDS011;61643;49.564;17.412;2023-05-07T13:17:47;2.28;;;1.73;;
73428;SDS011;61643;49.564;17.412;2023-05-07T13:20:13;3.20;;;2.60;;
73428;SDS011;61643;49.564;17.412;2023-05-07T13:22:39;4.57;;;2.75;;
73428;SDS011;61643;49.564;17.412;2023-05-07T13:25:05;3.10;;;2.47;;
73428;SDS011;61643;49.564;17.412;2023-05-07T13:27:32;3.53;;;2.75;;
73428;SDS011;61643;49.564;17.412;2023-05-07T13:30:01;3.15;;;2.65;;
73428;SDS011;61643;49.564;17.412;2023-05-07T13:32:27;2.95;;;2.33;;
73428;SDS011;61643;49.564;17.412;2023-05-07T13:34:52;4.03;;;2.88;;
73428;SDS011;61643;49.564;17.412;2023-05-07T13:37:18;2.90;;;2.50;;
73428;SDS011;61643;49.564;17.412;2023-05-07T13:39:45;3.60;;;2.40;;
73428;SDS011;61643;49.564;17.412;2023-05-07T13:42:11;4.05;;;2.90;;
73428;SDS011;61643;49.564;17.412;2023-05-07T13:44:37;5.30;;;3.03;;
73428;SDS011;61643;49.564;17.412;2023-05-07T13:47:03;4.95;;;3.03;;
73428;SDS011;61643;49.564;17.412;2023-05-07T13:49:29;3.50;;;3.00;;
73428;SDS011;61643;49.564;17.412;2023-05-07T13:51:55;6.10;;;2.97;;
73428;SDS011;61643;49.564;17.412;2023-05-07T13:54:21;3.03;;;2.40;;
73428;SDS011;61643;49.564;17.412;2023-05-07T13:56:47;5.38;;;2.80;;
73428;SDS011;61643;49.564;17.412;2023-05-07T13:59:13;4.35;;;2.97;;
73428;SDS011;61643;49.564;17.412;2023-05-07T14:01:40;4.70;;;3.70;;
73428;SDS011;61643;49.564;17.412;2023-05-07T14:04:06;5.15;;;3.53;;
73428;SDS011;61643;49.564;17.412;2023-05-07T14:06:33;4.30;;;3.47;;
73428;SDS011;61643;49.564;17.412;2023-05-07T14:08:59;3.42;;;2.65;;
73428;SDS011;61643;49.564;17.412;2023-05-07T14:11:25;4.07;;;2.50;;
73428;SDS011;61643;49.564;17.412;2023-05-07T14:13:51;3.42;;;2.65;;
73428;SDS011;61643;49.564;17.412;2023-05-07T14:16:17;4.45;;;3.08;;
73428;SDS011;61643;49.564;17.412;2023-05-07T14:18:43;4.75;;;3.45;;
73428;SDS011;61643;49.564;17.412;2023-05-07T14:21:09;4.45;;;3.38;;
73428;SDS011;61643;49.564;17.412;2023-05-07T14:23:35;3.45;;;2.55;;
73428;SDS011;61643;49.564;17.412;2023-05-07T14:26:01;3.47;;;2.85;;
73428;SDS011;61643;49.564;17.412;2023-05-07T14:28:27;4.68;;;2.90;;
73428;SDS011;61643;49.564;17.412;2023-05-07T14:30:53;5.30;;;3.47;;
73428;SDS011;61643;49.564;17.412;2023-05-07T14:33:19;4.25;;;3.30;;
73428;SDS011;61643;49.564;17.412;2023-05-07T14:35:45;4.13;;;3.30;;
73428;SDS011;61643;49.564;17.412;2023-05-07T14:38:14;4.10;;;3.40;;
73428;SDS011;61643;49.564;17.412;2023-05-07T14:40:41;4.35;;;3.10;;
73428;SDS011;61643;49.564;17.412;2023-05-07T14:43:07;4.05;;;3.13;;
73428;SDS011;61643;49.564;17.412;2023-05-07T14:45:33;4.28;;;3.10;;
73428;SDS011;61643;49.564;17.412;2023-05-07T14:47:59;5.68;;;3.75;;
73428;SDS011;61643;49.564;17.412;2023-05-07T14:50:25;7.28;;;4.45;;
73428;SDS011;61643;49.564;17.412;2023-05-07T14:52:51;6.03;;;4.50;;
73428;SDS011;61643;49.564;17.412;2023-05-07T14:55:17;5.68;;;4.18;;